createdAt,value
2022-11-29T00:01:36.061Z,76.41
2022-11-29T00:04:04.623Z,76.61
2022-11-29T00:06:34.846Z,76.83
2022-11-29T00:09:08.549Z,76.54
2022-11-29T00:11:54.760Z,76.88
2022-11-29T00:14:23.901Z,76.64
2022-11-29T00:16:53.651Z,76.83
2022-11-29T00:19:21.966Z,76.13
2022-11-29T00:21:50.039Z,76.23
2022-11-29T00:24:19.483Z,76.43
2022-11-29T00:26:47.297Z,76.33
2022-11-29T00:29:15.591Z,76.45
2022-11-29T00:31:44.274Z,76.62
2022-11-29T00:34:13.231Z,76.12
2022-11-29T00:36:41.417Z,76.27
2022-11-29T00:39:11.707Z,76.21
2022-11-29T00:41:41.479Z,76.34
2022-11-29T00:44:12.838Z,76.24
2022-11-29T00:46:43.334Z,76.46
2022-11-29T00:49:11.322Z,76.33
2022-11-29T00:51:39.217Z,76.39
2022-11-29T00:54:07.237Z,76.17
2022-11-29T00:56:35.062Z,75.76
2022-11-29T00:59:04.264Z,75.98
2022-11-29T01:01:32.155Z,76.03
2022-11-29T01:04:01.512Z,76.45
2022-11-29T01:06:29.748Z,76.81
2022-11-29T01:08:57.953Z,77.02
2022-11-29T01:11:28.572Z,76.82
2022-11-29T01:13:59.125Z,76.70
2022-11-29T01:16:30.035Z,76.68
2022-11-29T01:18:58.140Z,76.67
2022-11-29T01:21:26.120Z,76.34
2022-11-29T01:23:54.966Z,76.34
2022-11-29T01:26:24.966Z,76.12
2022-11-29T01:28:54.992Z,75.82
2022-11-29T01:31:24.934Z,75.78
2022-11-29T01:33:55.885Z,75.99
2022-11-29T01:36:24.394Z,76.48
2022-11-29T01:38:52.801Z,76.52
2022-11-29T01:41:24.198Z,77.94
2022-11-29T01:43:56.724Z,77.76
2022-11-29T01:46:24.842Z,77.56
2022-11-29T01:48:58.199Z,77.44
2022-11-29T01:51:27.752Z,76.79
2022-11-29T01:53:56.329Z,77.34
2022-11-29T01:56:25.419Z,77.08
2022-11-29T01:58:53.631Z,77.31
2022-11-29T02:01:21.596Z,77.05
2022-11-29T02:03:49.530Z,77.37
2022-11-29T02:06:18.971Z,77.05
2022-11-29T02:08:46.864Z,76.50
2022-11-29T02:11:47.079Z,76.35
2022-11-29T02:14:30.095Z,76.36
2022-11-29T02:17:07.982Z,76.65
2022-11-29T02:20:05.645Z,76.88
2022-11-29T02:22:42.167Z,76.84
2022-11-29T02:25:35.089Z,76.40
2022-11-29T02:28:35.010Z,76.39
2022-11-29T02:31:35.171Z,76.96
2022-11-29T02:34:33.783Z,77.05
2022-11-29T02:37:17.092Z,76.51
2022-11-29T02:39:57.317Z,76.71
2022-11-29T02:42:56.067Z,76.43
2022-11-29T02:45:39.515Z,76.39
2022-11-29T02:48:24.486Z,76.18
2022-11-29T02:50:58.373Z,76.25
2022-11-29T02:53:31.366Z,76.58
2022-11-29T02:56:10.818Z,76.08
2022-11-29T02:58:48.098Z,75.61
2022-11-29T03:01:21.980Z,75.19
2022-11-29T03:03:55.953Z,75.05
2022-11-29T03:06:35.091Z,75.99
2022-11-29T03:09:12.631Z,75.50
2022-11-29T03:11:49.190Z,75.45
2022-11-29T03:14:24.958Z,75.24
2022-11-29T03:17:01.880Z,74.95
2022-11-29T03:19:49.030Z,75.35
2022-11-29T03:22:29.476Z,75.10
2022-11-29T03:25:06.894Z,74.72
2022-11-29T03:27:48.704Z,74.71
2022-11-29T03:30:19.668Z,74.16
2022-11-29T03:32:56.863Z,74.28
2022-11-29T03:35:31.939Z,74.10
2022-11-29T03:38:09.888Z,74.28
2022-11-29T03:40:46.472Z,73.92
2022-11-29T03:43:21.228Z,74.14
2022-11-29T03:45:55.941Z,74.54
2022-11-29T03:48:32.942Z,74.98
2022-11-29T03:51:05.032Z,74.61
2022-11-29T03:53:43.565Z,74.11
2022-11-29T03:56:28.871Z,74.40
2022-11-29T03:59:11.934Z,74.40
2022-11-29T04:02:05.163Z,74.42
2022-11-29T04:05:10.433Z,74.57
2022-11-29T04:07:49.893Z,74.91
2022-11-29T04:10:32.386Z,74.92
2022-11-29T04:13:23.731Z,74.72
2022-11-29T04:16:27.747Z,74.66
2022-11-29T04:19:37.285Z,74.19
2022-11-29T04:22:26.814Z,74.32
2022-11-29T04:25:18.270Z,74.16
2022-11-29T04:28:07.864Z,74.08
2022-11-29T04:30:47.857Z,74.17
2022-11-29T04:33:46.397Z,74.19
2022-11-29T04:36:42.136Z,73.68
2022-11-29T04:39:26.738Z,73.72
2022-11-29T04:42:20.870Z,73.65
2022-11-29T04:45:01.948Z,73.80
2022-11-29T04:47:45.147Z,73.81
2022-11-29T04:50:25.080Z,73.88
2022-11-29T04:53:09.174Z,74.15
2022-11-29T04:55:46.636Z,74.36
2022-11-29T04:58:22.660Z,74.67
2022-11-29T05:01:01.578Z,74.31
2022-11-29T05:03:38.935Z,74.62
2022-11-29T05:06:21.153Z,73.98
2022-11-29T05:08:57.172Z,74.24
2022-11-29T05:11:36.214Z,74.30
2022-11-29T05:14:15.057Z,73.96
2022-11-29T05:17:25.655Z,73.70
2022-11-29T05:20:06.075Z,73.49
2022-11-29T05:22:41.391Z,73.62
2022-11-29T05:25:32.281Z,73.69
2022-11-29T05:28:10.173Z,73.83
2022-11-29T05:30:55.692Z,73.88
2022-11-29T05:33:48.934Z,74.08
2022-11-29T05:36:26.112Z,73.74
2022-11-29T05:39:11.923Z,73.62
2022-11-29T05:41:58.711Z,73.94
2022-11-29T05:44:34.612Z,73.89
2022-11-29T05:47:05.202Z,74.26
2022-11-29T05:49:42.836Z,74.01
2022-11-29T05:52:24.386Z,73.81
2022-11-29T05:55:08.491Z,73.91
2022-11-29T05:57:44.689Z,74.39
2022-11-29T06:00:16.819Z,73.98
2022-11-29T06:02:55.178Z,73.83
2022-11-29T06:05:32.785Z,73.77
2022-11-29T06:08:06.994Z,73.86
2022-11-29T06:10:40.032Z,73.46
2022-11-29T06:13:19.766Z,73.41
2022-11-29T06:16:24.608Z,73.33
2022-11-29T06:19:11.142Z,73.28
2022-11-29T06:21:46.973Z,73.58
2022-11-29T06:24:34.316Z,73.11
2022-11-29T06:27:19.072Z,73.38
2022-11-29T06:29:54.291Z,73.05
2022-11-29T06:32:31.826Z,73.35
2022-11-29T06:35:05.239Z,73.36
2022-11-29T06:37:39.958Z,73.57
2022-11-29T06:40:12.261Z,73.80
2022-11-29T06:42:40.145Z,73.69
2022-11-29T06:45:09.451Z,74.09
2022-11-29T06:47:43.753Z,73.76
2022-11-29T06:50:28.040Z,74.16
2022-11-29T06:53:03.997Z,73.90
2022-11-29T06:55:44.465Z,73.95
2022-11-29T06:58:35.636Z,74.80
2022-11-29T07:01:16.219Z,74.78
2022-11-29T07:03:56.654Z,74.81
2022-11-29T07:06:27.200Z,75.40
2022-11-29T07:09:01.080Z,75.19
2022-11-29T07:11:29.893Z,75.03
2022-11-29T07:13:58.442Z,74.89
2022-11-29T07:16:31.332Z,74.89
2022-11-29T07:19:07.461Z,74.82
2022-11-29T07:21:47.025Z,74.52
2022-11-29T07:24:29.486Z,74.89
2022-11-29T07:27:08.499Z,74.60
2022-11-29T07:29:48.556Z,74.66
2022-11-29T07:32:22.973Z,74.29
2022-11-29T07:34:57.935Z,74.10
2022-11-29T07:37:36.006Z,74.24
2022-11-29T07:40:14.409Z,74.04
2022-11-29T07:42:51.936Z,74.52
2022-11-29T07:45:26.752Z,74.77
2022-11-29T07:47:54.718Z,74.69
2022-11-29T07:50:23.110Z,74.82
2022-11-29T07:52:51.125Z,74.99
2022-11-29T07:55:22.376Z,74.51
2022-11-29T07:57:51.266Z,74.74
2022-11-29T08:00:20.491Z,74.24
2022-11-29T08:02:49.739Z,74.31
2022-11-29T08:05:18.296Z,74.36
2022-11-29T08:07:47.408Z,74.49
2022-11-29T08:10:17.456Z,75.12
2022-11-29T08:12:50.037Z,75.03
2022-11-29T08:15:19.792Z,75.10
2022-11-29T08:17:47.824Z,75.27
2022-11-29T08:20:17.436Z,75.56
2022-11-29T08:22:45.301Z,76.24
2022-11-29T08:25:13.592Z,75.68
2022-11-29T08:27:41.487Z,75.24
2022-11-29T08:30:11.307Z,74.47
2022-11-29T08:32:39.290Z,74.82
2022-11-29T08:35:07.407Z,74.93
2022-11-29T08:37:35.424Z,74.62
2022-11-29T08:40:04.552Z,74.88
2022-11-29T08:42:32.524Z,74.84
2022-11-29T08:45:00.378Z,75.19
2022-11-29T08:47:38.278Z,75.53
2022-11-29T08:50:10.126Z,75.63
2022-11-29T08:52:57.129Z,75.60
2022-11-29T08:55:27.181Z,75.34
2022-11-29T08:58:00.921Z,75.21
2022-11-29T09:00:28.762Z,74.63
2022-11-29T09:03:18.187Z,74.56
2022-11-29T09:05:46.273Z,74.51
2022-11-29T09:08:14.466Z,74.26
2022-11-29T09:10:42.873Z,74.99
2022-11-29T09:13:11.462Z,74.90
2022-11-29T09:15:40.011Z,75.49
2022-11-29T09:18:09.258Z,76.04
2022-11-29T09:20:37.276Z,75.88
2022-11-29T09:23:05.175Z,76.00
2022-11-29T09:25:33.249Z,76.07
2022-11-29T09:28:02.824Z,75.62
2022-11-29T09:30:31.443Z,75.62
2022-11-29T09:33:02.736Z,75.42
2022-11-29T09:35:32.352Z,75.31
2022-11-29T09:38:00.243Z,75.16
2022-11-29T09:40:34.864Z,75.86
2022-11-29T09:43:08.102Z,75.89
2022-11-29T09:45:42.459Z,76.13
2022-11-29T09:48:40.506Z,76.29
2022-11-29T09:51:22.469Z,76.37
2022-11-29T09:54:12.406Z,76.57
2022-11-29T09:56:43.470Z,75.97
2022-11-29T09:59:18.175Z,75.90
2022-11-29T10:01:53.268Z,75.87
2022-11-29T10:04:25.189Z,75.89
2022-11-29T10:07:00.666Z,75.70
2022-11-29T10:09:34.539Z,75.47
2022-11-29T10:12:13.431Z,75.77
2022-11-29T10:14:47.219Z,75.06
2022-11-29T10:17:26.080Z,75.33
2022-11-29T10:20:00.559Z,75.11
2022-11-29T10:22:40.773Z,75.63
2022-11-29T10:25:11.460Z,75.75
2022-11-29T10:27:41.645Z,75.57
2022-11-29T10:30:15.885Z,75.51
2022-11-29T10:32:46.552Z,75.55
2022-11-29T10:35:15.849Z,75.97
2022-11-29T10:38:01.365Z,75.83
2022-11-29T10:40:35.849Z,75.68
2022-11-29T10:43:04.870Z,75.64
2022-11-29T10:45:35.986Z,75.43
2022-11-29T10:48:06.055Z,75.80
2022-11-29T10:50:37.112Z,75.77
2022-11-29T10:53:11.224Z,75.68
2022-11-29T10:55:44.119Z,75.77
2022-11-29T10:58:23.379Z,75.38
2022-11-29T11:00:57.842Z,75.77
2022-11-29T11:03:33.325Z,74.75
2022-11-29T11:06:05.343Z,74.75
2022-11-29T11:08:36.028Z,75.04
2022-11-29T11:11:07.739Z,74.76
2022-11-29T11:13:36.902Z,74.39
2022-11-29T11:16:20.786Z,74.55
2022-11-29T11:18:49.376Z,74.14
2022-11-29T11:21:20.650Z,73.57
2022-11-29T11:23:56.821Z,73.74
2022-11-29T11:26:26.149Z,73.62
2022-11-29T11:28:57.939Z,73.62
2022-11-29T11:31:35.191Z,73.44
2022-11-29T11:34:26.527Z,73.39
2022-11-29T11:36:55.697Z,73.03
2022-11-29T11:39:25.207Z,72.94
2022-11-29T11:42:11.015Z,73.19
2022-11-29T11:44:49.621Z,72.74
2022-11-29T11:47:20.389Z,72.43
2022-11-29T11:49:50.293Z,72.43
2022-11-29T11:52:22.868Z,72.31
2022-11-29T11:54:55.757Z,72.74
2022-11-29T11:57:26.152Z,72.29
2022-11-29T11:59:57.848Z,72.72
2022-11-29T12:02:29.812Z,72.04
2022-11-29T12:05:01.498Z,72.19
2022-11-29T12:08:06.243Z,72.05
2022-11-29T12:10:29.528Z,71.77
2022-11-29T12:12:59.812Z,71.89
2022-11-29T12:15:33.218Z,71.91
2022-11-29T12:18:05.193Z,71.26
2022-11-29T12:20:39.974Z,71.10
2022-11-29T12:23:24.369Z,71.27
2022-11-29T12:25:58.989Z,71.09
2022-11-29T12:28:29.909Z,71.17
2022-11-29T12:31:09.249Z,71.07
2022-11-29T12:33:48.868Z,71.44
2022-11-29T12:36:31.583Z,71.56
2022-11-29T12:39:25.431Z,71.53
2022-11-29T12:41:58.173Z,71.26
2022-11-29T12:44:39.332Z,71.21
2022-11-29T12:50:17.911Z,71.04
2022-11-29T12:52:52.120Z,70.79
2022-11-29T12:55:25.483Z,70.54
2022-11-29T12:58:04.838Z,70.49
2022-11-29T13:00:40.037Z,70.60
2022-11-29T13:03:22.292Z,71.13
2022-11-29T13:06:02.505Z,71.05
2022-11-29T13:08:52.761Z,70.75
2022-11-29T13:11:26.072Z,70.92
2022-11-29T13:14:34.704Z,70.40
2022-11-29T13:16:58.980Z,70.30
2022-11-29T13:19:35.452Z,70.31
2022-11-29T13:22:11.770Z,69.99
2022-11-29T13:24:43.313Z,70.13
2022-11-29T13:27:17.864Z,70.09
2022-11-29T13:29:47.689Z,70.05
2022-11-29T13:32:30.872Z,69.92
2022-11-29T13:35:04.718Z,69.91
2022-11-29T13:37:39.842Z,70.20
2022-11-29T13:40:21.627Z,69.63
2022-11-29T13:42:58.800Z,69.96
2022-11-29T13:45:35.383Z,69.94
2022-11-29T13:48:27.810Z,69.75
2022-11-29T13:50:57.885Z,69.62
2022-11-29T13:53:31.874Z,69.60
2022-11-29T13:56:01.903Z,69.79
2022-11-29T13:58:37.713Z,69.24
2022-11-29T14:01:12.133Z,69.39
2022-11-29T14:03:41.865Z,69.25
2022-11-29T14:06:17.792Z,69.19
2022-11-29T14:09:25.849Z,69.35
2022-11-29T14:12:04.423Z,69.24
2022-11-29T14:14:38.775Z,69.29
2022-11-29T14:17:47.342Z,69.33
2022-11-29T14:20:51.685Z,69.24
2022-11-29T14:23:35.647Z,69.05
2022-11-29T14:26:28.842Z,69.27
2022-11-29T14:29:00.620Z,69.19
2022-11-29T14:31:48.137Z,69.27
2022-11-29T14:34:38.785Z,69.07
2022-11-29T14:37:18.464Z,69.24
2022-11-29T14:39:48.869Z,68.89
2022-11-29T14:42:19.325Z,68.88
2022-11-29T14:44:53.651Z,68.87
2022-11-29T14:47:29.833Z,69.07
2022-11-29T14:50:03.901Z,68.71
2022-11-29T14:52:35.067Z,69.41
2022-11-29T14:55:08.817Z,68.81
2022-11-29T14:58:05.978Z,68.54
2022-11-29T15:00:44.486Z,68.65
2022-11-29T15:03:14.826Z,68.46
2022-11-29T15:05:46.005Z,68.59
2022-11-29T15:08:19.108Z,68.63
2022-11-29T15:10:51.649Z,68.10
2022-11-29T15:13:26.992Z,67.96
2022-11-29T15:16:15.132Z,68.52
2022-11-29T15:19:13.236Z,67.98
2022-11-29T15:21:52.372Z,68.02
2022-11-29T15:24:24.940Z,67.75
2022-11-29T15:26:57.533Z,67.96
2022-11-29T15:29:26.610Z,68.21
2022-11-29T15:31:57.183Z,67.87
2022-11-29T15:34:32.603Z,67.88
2022-11-29T15:37:02.332Z,67.83
2022-11-29T15:39:32.124Z,67.57
2022-11-29T15:42:06.166Z,67.88
2022-11-29T15:44:34.126Z,67.63
2022-11-29T15:47:16.554Z,68.29
2022-11-29T15:49:44.801Z,68.58
2022-11-29T15:52:20.615Z,67.97
2022-11-29T15:54:53.167Z,68.45
2022-11-29T15:57:26.371Z,68.48
2022-11-29T15:59:57.668Z,68.46
2022-11-29T16:02:28.771Z,68.29
2022-11-29T16:05:00.856Z,68.69
2022-11-29T16:07:34.188Z,68.40
2022-11-29T16:10:05.944Z,68.34
2022-11-29T16:12:33.811Z,68.21
2022-11-29T16:15:02.615Z,68.19
2022-11-29T16:17:34.693Z,68.38
2022-11-29T16:20:23.520Z,68.56
2022-11-29T16:23:12.379Z,68.14
2022-11-29T16:25:54.802Z,68.05
2022-11-29T16:28:23.090Z,68.21
2022-11-29T16:30:51.027Z,67.98
2022-11-29T16:33:24.228Z,67.94
2022-11-29T16:36:03.384Z,68.28
2022-11-29T16:38:33.052Z,67.77
2022-11-29T16:41:04.494Z,67.49
2022-11-29T16:43:55.305Z,67.77
2022-11-29T16:46:33.170Z,67.67
2022-11-29T16:49:03.699Z,67.72
2022-11-29T16:51:39.896Z,67.38
2022-11-29T16:54:23.843Z,67.34
2022-11-29T16:56:53.301Z,67.14
2022-11-29T16:59:27.172Z,67.26
2022-11-29T17:01:56.374Z,67.63
2022-11-29T17:04:25.295Z,67.23
2022-11-29T17:06:54.854Z,67.25
2022-11-29T17:09:26.778Z,66.75
2022-11-29T17:11:55.615Z,67.13
2022-11-29T17:14:23.925Z,66.97
2022-11-29T17:16:52.192Z,66.67
2022-11-29T17:19:24.203Z,67.01
2022-11-29T17:21:58.806Z,66.74
2022-11-29T17:24:28.556Z,66.70
2022-11-29T17:26:57.685Z,66.27
2022-11-29T17:29:25.714Z,66.56
2022-11-29T17:31:53.732Z,66.74
2022-11-29T17:34:21.840Z,66.30
2022-11-29T17:36:49.932Z,66.38
2022-11-29T17:39:20.180Z,66.59
2022-11-29T17:41:49.702Z,66.45
2022-11-29T17:44:17.990Z,65.88
2022-11-29T17:46:46.328Z,66.09
2022-11-29T17:49:14.421Z,65.27
2022-11-29T17:51:51.776Z,65.21
2022-11-29T17:54:20.859Z,65.54
2022-11-29T17:56:50.268Z,65.65
2022-11-29T17:59:18.223Z,65.56
2022-11-29T18:01:47.420Z,65.28
2022-11-29T18:04:15.670Z,65.25
2022-11-29T18:06:43.663Z,66.11
2022-11-29T18:09:12.887Z,65.26
2022-11-29T18:11:48.544Z,65.52
2022-11-29T18:14:27.991Z,65.37
2022-11-29T18:16:56.713Z,65.25
2022-11-29T18:19:25.673Z,65.63
2022-11-29T18:21:53.753Z,65.18
2022-11-29T18:24:30.944Z,65.16
2022-11-29T18:27:01.458Z,65.01
2022-11-29T18:29:36.469Z,65.12
2022-11-29T18:32:07.413Z,65.39
2022-11-29T18:34:35.364Z,65.63
2022-11-29T18:37:03.421Z,65.35
2022-11-29T18:39:31.824Z,65.70
2022-11-29T18:41:59.856Z,65.90
2022-11-29T18:44:29.545Z,65.50
2022-11-29T18:46:58.936Z,65.35
2022-11-29T18:49:26.945Z,65.88
2022-11-29T18:51:55.106Z,65.83
2022-11-29T18:54:23.500Z,65.12
2022-11-29T18:56:51.910Z,65.25
2022-11-29T18:59:21.925Z,65.58
2022-11-29T19:01:50.789Z,65.49
2022-11-29T19:04:21.780Z,65.21
2022-11-29T19:06:50.100Z,65.68
2022-11-29T19:09:21.194Z,65.19
2022-11-29T19:11:49.951Z,64.97
2022-11-29T19:14:18.486Z,65.77
2022-11-29T19:16:49.208Z,65.42
2022-11-29T19:19:18.719Z,65.26
2022-11-29T19:21:48.731Z,65.43
2022-11-29T19:24:18.100Z,65.59
2022-11-29T19:26:49.110Z,65.21
2022-11-29T19:29:17.666Z,65.28
2022-11-29T19:31:46.442Z,65.72
2022-11-29T19:34:15.137Z,65.84
2022-11-29T19:36:45.525Z,65.31
2022-11-29T19:39:17.477Z,65.31
2022-11-29T19:41:47.547Z,65.22
2022-11-29T19:44:15.798Z,65.44
2022-11-29T19:46:45.566Z,65.73
2022-11-29T19:49:13.583Z,65.83
2022-11-29T19:51:42.281Z,65.49
2022-11-29T19:54:11.153Z,65.80
2022-11-29T19:56:43.155Z,65.65
2022-11-29T19:59:11.325Z,65.46
2022-11-29T20:01:42.334Z,65.97
2022-11-29T20:04:12.839Z,65.81
2022-11-29T20:06:41.642Z,65.80
2022-11-29T20:09:10.071Z,65.84
2022-11-29T20:11:40.402Z,65.49
2022-11-29T20:14:09.211Z,65.93
2022-11-29T20:16:39.076Z,66.14
2022-11-29T20:19:12.187Z,65.95
2022-11-29T20:21:43.616Z,66.08
2022-11-29T20:24:12.894Z,65.98
2022-11-29T20:26:44.840Z,65.95
2022-11-29T20:29:13.873Z,66.08
2022-11-29T20:31:49.153Z,66.04
2022-11-29T20:34:19.232Z,66.25
2022-11-29T20:37:07.402Z,65.98
2022-11-29T20:39:43.233Z,66.27
2022-11-29T20:42:41.525Z,66.23
2022-11-29T20:45:13.618Z,66.09
2022-11-29T20:47:50.261Z,66.38
2022-11-29T20:50:23.516Z,66.26
2022-11-29T20:53:03.091Z,66.54
2022-11-29T20:55:31.028Z,66.85
2022-11-29T20:58:00.399Z,66.64
2022-11-29T21:00:28.353Z,66.51
2022-11-29T21:02:56.228Z,66.41
2022-11-29T21:05:24.139Z,66.54
2022-11-29T21:07:52.126Z,66.28
2022-11-29T21:10:20.295Z,66.39
2022-11-29T21:12:49.324Z,66.79
2022-11-29T21:15:19.762Z,66.66
2022-11-29T21:17:48.205Z,66.34
2022-11-29T21:20:19.829Z,66.48
2022-11-29T21:22:56.808Z,66.65
2022-11-29T21:25:36.467Z,66.55
2022-11-29T21:28:09.645Z,66.55
2022-11-29T21:30:39.877Z,66.38
2022-11-29T21:33:09.123Z,66.32
2022-11-29T21:35:39.648Z,66.45
2022-11-29T21:38:11.759Z,66.80
2022-11-29T21:40:39.669Z,66.87
2022-11-29T21:43:07.628Z,67.29
2022-11-29T21:45:35.760Z,67.33
2022-11-29T21:48:25.377Z,66.91
2022-11-29T21:50:53.339Z,66.60
2022-11-29T21:53:21.207Z,66.38
2022-11-29T21:55:49.192Z,66.54
2022-11-29T21:58:17.116Z,66.56
2022-11-29T22:00:45.396Z,66.22
2022-11-29T22:03:15.195Z,66.61
2022-11-29T22:05:43.169Z,65.84
2022-11-29T22:08:11.131Z,65.98
2022-11-29T22:10:39.033Z,66.08
2022-11-29T22:13:06.955Z,65.97
2022-11-29T22:15:34.799Z,65.93
2022-11-29T22:18:02.660Z,66.10
2022-11-29T22:20:31.968Z,65.97
2022-11-29T22:23:01.143Z,65.68
2022-11-29T22:25:29.427Z,65.85
2022-11-29T22:27:57.289Z,66.43
2022-11-29T22:30:25.422Z,66.47
2022-11-29T22:32:53.347Z,66.40
2022-11-29T22:35:21.307Z,66.93
2022-11-29T22:37:50.614Z,66.83
2022-11-29T22:40:18.709Z,66.32
2022-11-29T22:42:46.630Z,66.42
2022-11-29T22:45:14.676Z,66.34
2022-11-29T22:47:42.818Z,66.22
2022-11-29T22:50:12.169Z,66.02
2022-11-29T22:52:40.066Z,65.83
2022-11-29T22:55:10.270Z,65.93
2022-11-29T22:57:38.211Z,65.75
2022-11-29T23:00:07.657Z,66.14
2022-11-29T23:02:35.585Z,65.80
2022-11-29T23:05:03.734Z,66.28
2022-11-29T23:07:32.522Z,66.03
2022-11-29T23:10:00.508Z,65.92
2022-11-29T23:12:30.434Z,66.07
2022-11-29T23:14:59.277Z,66.06
2022-11-29T23:17:28.562Z,66.14
2022-11-29T23:19:57.253Z,66.21
2022-11-29T23:22:25.124Z,66.04
2022-11-29T23:24:53.026Z,66.00
2022-11-29T23:27:20.965Z,66.07
2022-11-29T23:29:50.348Z,66.41
2022-11-29T23:32:18.180Z,66.33
2022-11-29T23:34:46.294Z,66.64
2022-11-29T23:37:14.474Z,66.22
2022-11-29T23:39:42.412Z,66.19
2022-11-29T23:42:11.414Z,66.21
2022-11-29T23:44:39.260Z,66.53
2022-11-29T23:47:08.458Z,65.96
2022-11-29T23:49:39.752Z,66.10
2022-11-29T23:52:07.584Z,65.87
2022-11-29T23:54:35.417Z,65.36
2022-11-29T23:57:03.422Z,65.30
2022-11-29T23:59:31.282Z,65.72
